Time;durP1;ratioP1;P1;durP2;ratioP2;P2;SDS_P1;SDS_P2;PMS_P1;PMS_P2;Temp;Humidity;BMP_temperature;BMP_pressure;BME280_temperature;BME280_humidity;BME280_pressure;Samples;Min_cycle;Max_cycle;Signal;HPM_P1;HPM_P2
2022/01/14 00:02:26;;;;;;;21.52;8.45;;;11.40;60.10;;;;;;20635401;28;20040;-78
2022/01/14 00:12:35;;;;;;;16.30;7.43;;;11.40;60.20;;;;;;20603885;28;20457;-79
2022/01/14 00:22:36;;;;;;;14.90;7.63;;;11.40;61.00;;;;;;20619934;28;20125;-80
2022/01/14 00:32:49;;;;;;;18.02;8.75;;;11.40;60.40;;;;;;20649751;28;20054;-78
2022/01/14 00:42:50;;;;;;;14.40;7.30;;;11.40;60.50;;;;;;20634401;28;20054;-79
2022/01/14 00:52:50;;;;;;;16.75;7.25;;;11.40;60.50;;;;;;20615521;28;20038;-79
2022/01/14 01:02:51;;;;;;;16.87;8.50;;;11.30;60.60;;;;;;20632116;28;20093;-78
2022/01/14 01:12:58;;;;;;;11.07;7.90;;;11.40;60.60;;;;;;20599440;28;20302;-78
2022/01/14 01:22:58;;;;;;;;;;;11.30;60.70;;;;;;20616148;28;20297;-79
2022/01/14 01:33:08;;;;;;;16.67;8.25;;;11.30;60.70;;;;;;20647439;28;20333;-79
2022/01/14 01:43:10;;;;;;;15.13;7.87;;;11.30;60.70;;;;;;20598017;28;20133;-78
2022/01/14 01:53:10;;;;;;;18.83;8.55;;;11.30;60.70;;;;;;20598409;28;20269;-79
2022/01/14 02:03:11;;;;;;;17.25;7.90;;;11.30;60.80;;;;;;20630858;28;20093;-78
2022/01/14 02:13:13;;;;;;;19.45;7.93;;;11.30;60.90;;;;;;20629483;28;20385;-78
2022/01/14 02:23:16;;;;;;;14.75;6.82;;;11.30;60.80;;;;;;20611803;28;20042;-79
2022/01/14 02:33:18;;;;;;;19.38;7.80;;;11.20;60.80;;;;;;20627220;28;20070;-78
2022/01/14 02:43:18;;;;;;;17.02;7.30;;;11.20;60.90;;;;;;20625553;28;20050;-79
2022/01/14 02:53:42;;;;;;;15.23;7.45;;;11.20;60.90;;;;;;20624809;28;20034;-78
2022/01/14 03:03:45;;;;;;;19.10;8.55;;;11.20;60.90;;;;;;20643955;28;20042;-79
2022/01/14 03:13:46;;;;;;;19.77;8.40;;;11.20;61.00;;;;;;20623287;28;20035;-78
2022/01/14 03:23:50;;;;;;;18.95;9.27;;;11.20;61.00;;;;;;20638536;28;20046;-79
2022/01/14 03:33:51;;;;;;;17.38;8.98;;;11.20;61.00;;;;;;20622483;28;20038;-79
2022/01/14 03:43:51;;;;;;;17.20;8.98;;;11.20;61.10;;;;;;20622032;28;20539;-78
2022/01/14 03:53:52;;;;;;;19.23;8.65;;;11.20;61.10;;;;;;20605432;28;20053;-78
2022/01/14 04:03:52;;;;;;;18.20;8.48;;;11.10;61.20;;;;;;20619584;28;20432;-78
2022/01/14 04:13:55;;;;;;;22.02;8.60;;;11.20;61.20;;;;;;20619099;28;20484;-78
2022/01/14 04:23:57;;;;;;;15.90;7.78;;;11.10;61.20;;;;;;20618440;28;20069;-79
2022/01/14 04:33:59;;;;;;;16.98;8.43;;;11.10;61.30;;;;;;20649650;28;20047;-79
2022/01/14 04:44:01;;;;;;;16.67;8.45;;;11.10;61.30;;;;;;20633673;28;20073;-78
2022/01/14 04:54:03;;;;;;;19.42;9.00;;;11.10;61.40;;;;;;20616860;28;20031;-79
2022/01/14 05:04:04;;;;;;;21.90;9.30;;;11.10;61.40;;;;;;20616422;28;20038;-78
2022/01/14 05:14:05;;;;;;;15.32;8.30;;;11.20;62.20;;;;;;20615150;28;20049;-78
2022/01/14 05:24:05;;;;;;;14.60;8.10;;;11.90;60.00;;;;;;20614648;28;20038;-78
2022/01/14 05:34:07;;;;;;;15.73;8.93;;;12.90;57.60;;;;;;20614514;28;20301;-78
2022/01/14 05:44:08;;;;;;;13.35;7.22;;;13.90;55.00;;;;;;20641385;28;20718;-76
2022/01/14 05:54:09;;;;;;;12.20;6.45;;;14.80;52.70;;;;;;20645166;28;20109;-77
2022/01/14 06:04:09;;;;;;;14.88;7.63;;;15.30;51.10;;;;;;20659498;28;20030;-74
2022/01/14 06:14:10;;;;;;;16.08;7.50;;;15.40;50.40;;;;;;20660677;28;20113;-76
2022/01/14 06:24:12;;;;;;;18.08;7.55;;;15.40;50.20;;;;;;20657838;28;20054;-78
2022/01/14 06:34:14;;;;;;;17.83;7.85;;;15.20;50.20;;;;;;20640404;28;20093;-75
2022/01/14 06:44:15;;;;;;;20.27;7.53;;;14.60;51.20;;;;;;20683959;28;20069;-74
2022/01/14 06:54:15;;;;;;;13.48;6.57;;;13.80;52.70;;;;;;20656476;28;20034;-74
2022/01/14 07:04:16;;;;;;;14.90;7.70;;;13.20;54.20;;;;;;20621909;28;20560;-75
2022/01/14 07:14:16;;;;;;;17.52;8.48;;;12.60;55.50;;;;;;20632429;28;20384;-74
2022/01/14 07:24:17;;;;;;;15.45;6.82;;;12.20;56.60;;;;;;20636030;28;20408;-75
2022/01/14 07:34:18;;;;;;;13.57;6.65;;;12.00;57.50;;;;;;20635387;28;20038;-75
2022/01/14 07:44:19;;;;;;;13.75;6.53;;;11.80;58.10;;;;;;20651168;28;20051;-74
2022/01/14 07:54:19;;;;;;;13.15;7.25;;;11.80;58.60;;;;;;20648757;28;20035;-74
2022/01/14 08:04:20;;;;;;;15.60;6.30;;;11.70;58.80;;;;;;20632501;28;20041;-75
2022/01/14 08:14:20;;;;;;;14.70;5.63;;;11.70;59.00;;;;;;20647914;28;20050;-74
2022/01/14 08:24:21;;;;;;;12.48;6.32;;;11.70;59.10;;;;;;20646508;28;20124;-76
2022/01/14 08:34:22;;;;;;;11.85;6.03;;;11.70;59.20;;;;;;20645231;28;20038;-75
2022/01/14 08:44:22;;;;;;;9.90;5.00;;;11.70;59.40;;;;;;20613774;28;20050;-75
2022/01/14 08:54:23;;;;;;;11.80;5.88;;;11.70;59.50;;;;;;20613216;28;20064;-76
2022/01/14 09:04:23;;;;;;;11.82;5.68;;;11.70;59.50;;;;;;20628547;28;20049;-76
2022/01/14 09:14:25;;;;;;;12.55;5.53;;;11.60;59.60;;;;;;20609896;28;20054;-75
2022/01/14 09:24:25;;;;;;;16.08;6.15;;;11.60;59.80;;;;;;20644620;28;20039;-75
2022/01/14 09:34:26;;;;;;;12.23;5.78;;;11.60;59.90;;;;;;20627177;28;20042;-75
2022/01/14 09:44:27;;;;;;;14.57;5.10;;;11.60;59.90;;;;;;20595379;28;20070;-75
2022/01/14 09:54:27;;;;;;;10.67;4.90;;;11.60;60.00;;;;;;20626975;28;20396;-76
2022/01/14 10:04:29;;;;;;;11.57;5.50;;;11.60;60.00;;;;;;20610065;28;20328;-75
2022/01/14 10:14:29;;;;;;;12.95;5.63;;;11.60;60.10;;;;;;20626229;28;20301;-76
2022/01/14 10:24:31;;;;;;;9.85;5.75;;;11.60;60.20;;;;;;20564054;28;20042;-76
2022/01/14 10:34:32;;;;;;;14.02;5.88;;;11.60;60.20;;;;;;20606851;28;20038;-76
2022/01/14 10:44:38;;;;;;;11.95;6.05;;;11.60;60.30;;;;;;20638816;28;20132;-75
2022/01/14 10:54:44;;;;;;;17.00;6.35;;;11.60;60.40;;;;;;20581775;28;20037;-75
2022/01/14 11:05:04;;;;;;;10.30;6.33;;;11.60;60.50;;;;;;20684352;28;20512;-77
2022/01/14 11:15:05;;;;;;;12.68;6.22;;;11.70;60.60;;;;;;20636835;28;20046;-76
2022/01/14 11:25:05;;;;;;;15.48;6.03;;;12.40;59.20;;;;;;20650193;28;20038;-76
2022/01/14 11:35:19;;;;;;;9.63;5.38;;;13.20;57.10;;;;;;20602875;28;20484;-80
2022/01/14 11:45:41;;;;;;;15.00;7.03;;;14.00;55.10;;;;;;20909145;23;20136;-79
2022/01/14 11:55:41;;;;;;;10.93;6.40;;;14.60;53.60;;;;;;20557037;28;20046;-77
2022/01/14 12:05:57;;;;;;;12.25;6.07;;;15.00;52.50;;;;;;20516545;28;20481;-78
2022/01/14 12:16:05;;;;;;;10.68;5.70;;;15.10;51.90;;;;;;20514796;28;20518;-78
2022/01/14 12:26:13;;;;;;;11.00;5.47;;;15.10;51.80;;;;;;20510745;28;20035;-79
2022/01/14 12:36:17;;;;;;;12.70;5.90;;;14.70;52.50;;;;;;20540087;28;20031;-77
2022/01/14 12:56:35;;;;;;;13.83;6.50;;;13.30;55.40;;;;;;20523235;28;20038;-75
2022/01/14 13:06:49;;;;;;;12.52;6.30;;;12.80;56.60;;;;;;20523893;28;20537;-79
2022/01/14 13:16:50;;;;;;;13.57;6.10;;;12.50;57.80;;;;;;20497646;28;20094;-79
2022/01/14 13:27:08;;;;;;;16.48;6.45;;;12.20;58.60;;;;;;20553516;28;20516;-79
2022/01/14 13:37:09;;;;;;;15.40;6.20;;;12.00;59.20;;;;;;20569468;28;20047;-81
2022/01/14 13:47:12;;;;;;;14.73;5.88;;;12.00;59.70;;;;;;20553105;28;20088;-79
2022/01/14 13:57:14;;;;;;;13.65;6.15;;;11.90;60.00;;;;;;20536431;28;20497;-78
2022/01/14 14:07:18;;;;;;;14.30;5.75;;;11.90;60.10;;;;;;20566666;28;20051;-78
2022/01/14 14:17:19;;;;;;;11.82;5.57;;;11.90;60.30;;;;;;20605918;28;20031;-79
2022/01/14 14:27:20;;;;;;;16.08;6.40;;;12.00;60.40;;;;;;20564865;28;20046;-80
2022/01/14 14:37:21;;;;;;;8.88;5.50;;;11.90;60.60;;;;;;20565206;28;20453;-80
2022/01/14 14:47:21;;;;;;;12.27;5.85;;;11.90;60.80;;;;;;20520701;28;20035;-78
2022/01/14 14:57:23;;;;;;;9.25;5.28;;;11.90;60.90;;;;;;20557466;28;20123;-79
2022/01/14 15:07:23;;;;;;;10.00;4.32;;;11.80;61.30;;;;;;20591393;28;20402;-79
2022/01/14 15:27:25;;;;;;;12.23;5.45;;;11.70;61.80;;;;;;20560563;28;20043;-78
2022/01/14 15:37:25;;;;;;;8.10;4.00;;;11.80;62.20;;;;;;20559179;28;20500;-75
2022/01/14 15:47:26;;;;;;;8.65;4.05;;;12.00;62.10;;;;;;20557759;28;20121;-75
2022/01/14 15:57:27;;;;;;;11.70;4.35;;;12.80;60.40;;;;;;20555203;28;20121;-80
2022/01/14 16:07:28;;;;;;;9.15;4.20;;;13.60;58.70;;;;;;20538100;28;20089;-75
2022/01/14 16:17:28;;;;;;;8.10;3.63;;;14.40;57.10;;;;;;20535510;28;20125;-74
2022/01/14 16:27:29;;;;;;;9.50;3.33;;;14.80;55.70;;;;;;20567871;28;20465;-75
2022/01/14 16:37:30;;;;;;;6.20;3.45;;;14.90;55.00;;;;;;20567301;28;20022;-75
2022/01/14 16:47:31;;;;;;;6.60;3.72;;;14.90;54.80;;;;;;20567681;28;20142;-77
2022/01/14 16:57:31;;;;;;;6.93;3.65;;;14.50;55.20;;;;;;20549696;28;20069;-75
2022/01/14 17:07:33;;;;;;;5.82;2.92;;;13.90;56.50;;;;;;20536693;28;20049;-77
2022/01/14 17:17:35;;;;;;;4.60;2.63;;;13.20;57.80;;;;;;20553894;28;20093;-78
2022/01/14 17:27:35;;;;;;;4.10;2.72;;;12.80;59.10;;;;;;20526352;28;20047;-76
2022/01/14 17:37:36;;;;;;;4.23;2.83;;;12.40;60.10;;;;;;20609515;28;20088;-82
2022/01/14 17:47:37;;;;;;;4.55;2.95;;;12.20;60.90;;;;;;20615110;28;20677;-79
2022/01/14 17:57:37;;;;;;;5.57;3.47;;;12.00;61.60;;;;;;20546977;28;20057;-82
2022/01/14 18:07:40;;;;;;;3.95;2.47;;;11.90;62.10;;;;;;20515391;28;20129;-80
2022/01/14 18:17:40;;;;;;;5.80;3.10;;;11.90;62.40;;;;;;20558692;28;20047;-80
2022/01/14 18:27:41;;;;;;;6.47;2.58;;;11.90;62.50;;;;;;20556084;28;20041;-82
2022/01/14 18:37:42;;;;;;;3.90;2.28;;;11.90;63.30;;;;;;20572632;28;20126;-79
2022/01/14 18:47:42;;;;;;;3.83;2.47;;;11.90;62.70;;;;;;20509932;28;1216346;-81
2022/01/14 18:57:43;;;;;;;4.53;2.33;;;12.00;62.80;;;;;;20560583;28;20051;-79
2022/01/14 19:07:44;;;;;;;5.85;2.30;;;12.00;62.70;;;;;;20576301;28;20074;-82
2022/01/14 19:17:44;;;;;;;3.85;2.22;;;12.00;62.70;;;;;;20569654;28;20086;-78
2022/01/14 19:27:45;;;;;;;2.63;1.73;;;12.00;62.70;;;;;;20574255;28;20504;-78
2022/01/14 19:37:46;;;;;;;2.55;1.80;;;12.00;62.70;;;;;;20556343;28;20294;-78
2022/01/14 19:47:46;;;;;;;3.67;1.98;;;12.00;62.70;;;;;;20595028;28;20065;-77
2022/01/14 19:57:47;;;;;;;2.80;1.43;;;11.90;62.70;;;;;;20634419;28;20501;-77
2022/01/14 20:07:48;;;;;;;6.43;1.88;;;11.90;62.70;;;;;;20634508;28;20300;-77
2022/01/14 20:17:49;;;;;;;2.05;1.30;;;11.90;62.80;;;;;;20636371;28;20038;-77
2022/01/14 20:27:50;;;;;;;2.95;1.50;;;11.90;62.80;;;;;;20629484;28;20396;-77
2022/01/14 20:37:53;;;;;;;2.20;1.60;;;11.90;62.80;;;;;;20628017;28;20457;-82
2022/01/14 20:48:00;;;;;;;5.03;1.83;;;11.90;62.80;;;;;;20651999;28;20034;-82
2022/01/14 20:58:03;;;;;;;2.45;1.50;;;11.90;62.80;;;;;;20633089;28;20042;-81
2022/01/14 21:08:04;;;;;;;4.15;1.77;;;11.90;62.80;;;;;;20648306;28;20046;-82
2022/01/14 21:18:08;;;;;;;3.78;1.45;;;11.90;62.80;;;;;;20630170;28;20094;-83
2022/01/14 21:28:11;;;;;;;3.15;1.58;;;11.80;62.70;;;;;;20584652;28;20113;-82
2022/01/14 21:38:12;;;;;;;5.70;1.75;;;11.80;62.70;;;;;;20583128;28;20051;-82
2022/01/14 21:48:18;;;;;;;2.70;1.42;;;11.80;62.60;;;;;;20544170;28;20090;-83
2022/01/14 21:58:19;;;;;;;2.40;1.15;;;11.80;62.60;;;;;;20579446;28;20125;-78
2022/01/14 22:08:22;;;;;;;3.60;1.88;;;11.80;62.60;;;;;;20533037;28;20131;-78
2022/01/14 22:18:23;;;;;;;4.47;1.65;;;11.80;62.50;;;;;;20506144;28;20042;-78
2022/01/14 22:28:24;;;;;;;3.35;1.95;;;11.80;62.50;;;;;;20555787;28;20043;-79
2022/01/14 22:38:25;;;;;;;2.22;1.30;;;11.70;62.40;;;;;;20537025;28;20138;-79
2022/01/14 22:48:26;;;;;;;3.80;1.40;;;11.70;62.40;;;;;;20509505;29;20051;-79
2022/01/14 22:58:27;;;;;;;4.18;1.75;;;11.70;62.30;;;;;;20480137;29;20031;-78
2022/01/14 23:08:28;;;;;;;2.50;1.20;;;11.70;62.20;;;;;;20512310;28;20478;-80
2022/01/14 23:18:29;;;;;;;2.00;1.20;;;11.70;62.20;;;;;;20495254;29;20191;-79
2022/01/14 23:28:30;;;;;;;3.97;1.30;;;11.70;62.10;;;;;;20479102;29;20118;-79
2022/01/14 23:38:30;;;;;;;3.22;1.38;;;11.70;62.10;;;;;;20477331;28;20054;-79
2022/01/14 23:48:33;;;;;;;1.58;0.80;;;11.70;62.00;;;;;;20478525;29;20044;-78
2022/01/14 23:58:35;;;;;;;3.20;1.40;;;11.60;61.80;;;;;;20491937;29;20134;-78
